17:58
Airports
History
Links
Donate
Help keep this website running!
PayPal
Bitcoin
This page is community maintained. The information is intended for PC simulator navigation or reference.
Always use approved charts for navigation.
LPOV
OVAR
OVAR (LPOV)
Ovar, Aveiro, Portugal (3885)
(C)
Lat/Lng:40° 54' 57.31" N / 8° 38' 45.33" W
40.91592 / -8.645925
Elevation:56'ft / 17mMSL
ID / ICAO:LPOV
Runways:1
Longest:18-36
Concrete 2,430m / 7,973ft
Controlled:Yes
Nearby Weather17:30 GMT 2018-01-18
Nearby weather at LPPR, Porto located 23.0 nautical miles from LPOV
Altimeter: 30.21
Visibility: 6.2 statute miles
Wind: 6 knots (from 340°)
Temp: 11°c / 52°f
Humidity: 87.5%

METAR: LPPR 181730Z 34006KT CAVOK 11/09 Q1023

(Powered by phpweather)
Airport Radio Frequencies
Tower: 122.1
Approach: 118.6, 140
Nearby VORs <50NM
Nearby NDBs
Runway 18 / 36
Dimensions:2430.1 x 45.1m 7973' x 148'ft
Surface:Concrete
Edge Lights:High intensity
Runway 18 [A]Runway 36 [B]
Heading:176°TH 356°TH
Lat:
Lng:
40° 55' 36.58"N
8° 38' 48.83"W
40° 54' 18.04"N
8° 38' 41.83"W
ALS:MALS
User Notes and Comments
40° 54' 57.31" N / 8° 38' 45.33" W
Distance To
Airport ID:
Nearby Airports
(U) Paramos Airfield 3.5 NM
LPIN N 356°
(U) AVEIRO 18.8 NM
LPAV SSW 195°
(C) Porto 23.0 NM
LPPR ( WX ) N 355°
(U) Maia Airfield 25.4 NM
LPVL NNE 17°
(U) VISEU 41.7 NM
LPVZ ESE 108°
(U) BRAGA 47.5 NM
LPBR NNE 12°
(U) COIMBRA 53.2 NM
LPCO S 170°
VFR Chart
Flight Planning at SkyVector.com